createdAt,value
2019-03-29T00:00:03.413Z,390.00
2019-03-29T00:00:14.836Z,391.00
2019-03-29T00:00:26.691Z,394.00
2019-03-29T00:00:38.492Z,394.00
2019-03-29T00:00:50.194Z,391.00
2019-03-29T00:01:01.892Z,386.00
2019-03-29T00:01:13.592Z,389.00
2019-03-29T00:01:25.374Z,387.00
2019-03-29T00:01:37.351Z,389.00
2019-03-29T00:01:49.070Z,387.00
2019-03-29T00:02:00.794Z,389.00
2019-03-29T00:02:11.972Z,389.00
2019-03-29T00:02:23.774Z,391.00
2019-03-29T00:02:35.491Z,389.00
2019-03-29T00:02:46.790Z,389.00
2019-03-29T00:02:58.670Z,389.00
2019-03-29T00:03:09.862Z,388.00
2019-03-29T00:03:21.555Z,391.00
2019-03-29T00:03:32.570Z,393.00
2019-03-29T00:03:43.633Z,393.00
2019-03-29T00:03:55.531Z,391.00
2019-03-29T00:04:07.453Z,389.00
2019-03-29T00:04:19.172Z,389.00
2019-03-29T00:04:31.034Z,388.00
2019-03-29T00:04:42.732Z,387.00
2019-03-29T00:04:54.493Z,388.00
2019-03-29T00:05:05.569Z,390.00
2019-03-29T00:05:17.312Z,392.00
2019-03-29T00:05:29.032Z,390.00
2019-03-29T00:05:40.173Z,391.00
2019-03-29T00:05:51.256Z,391.00
2019-03-29T00:06:02.536Z,391.00
2019-03-29T00:06:14.234Z,393.00
2019-03-29T00:06:25.954Z,390.00
2019-03-29T00:06:37.790Z,390.00
2019-03-29T00:06:49.491Z,389.00
2019-03-29T00:07:00.554Z,390.00
2019-03-29T00:07:12.590Z,392.00
2019-03-29T00:07:38.575Z,392.00
2019-03-29T00:07:41.838Z,390.00
2019-03-29T00:07:53.674Z,390.00
2019-03-29T00:08:05.380Z,392.00
2019-03-29T00:08:17.072Z,396.00
2019-03-29T00:08:28.832Z,398.00
2019-03-29T00:08:40.575Z,397.00
2019-03-29T00:08:51.616Z,394.00
2019-03-29T00:09:03.391Z,392.00
2019-03-29T00:09:15.350Z,387.00
2019-03-29T00:09:26.509Z,390.00
2019-03-29T00:09:37.531Z,392.00
2019-03-29T00:09:49.393Z,392.00
2019-03-29T00:10:01.096Z,390.00
2019-03-29T00:10:13.010Z,408.00
2019-03-29T00:10:24.974Z,402.00
2019-03-29T00:10:36.769Z,402.00
2019-03-29T00:10:48.511Z,405.00
2019-03-29T00:11:00.377Z,402.00
2019-03-29T00:11:11.432Z,402.00
2019-03-29T00:11:23.150Z,395.00
2019-03-29T00:11:34.291Z,394.00
2019-03-29T00:11:46.215Z,391.00
2019-03-29T00:11:57.950Z,391.00
2019-03-29T00:12:09.676Z,393.00
2019-03-29T00:12:21.511Z,391.00
2019-03-29T00:12:33.213Z,395.00
2019-03-29T00:12:45.231Z,398.00
2019-03-29T00:12:57.281Z,400.00
2019-03-29T00:13:09.068Z,399.00
2019-03-29T00:13:21.152Z,402.00
2019-03-29T00:13:33.014Z,398.00
2019-03-29T00:13:44.978Z,397.00
2019-03-29T00:13:56.975Z,397.00
2019-03-29T00:14:08.211Z,394.00
2019-03-29T00:14:23.272Z,394.00
2019-03-29T00:14:35.473Z,397.00
2019-03-29T00:14:47.432Z,395.00
2019-03-29T00:14:59.193Z,394.00
2019-03-29T00:15:11.072Z,394.00
2019-03-29T00:15:22.672Z,395.00
2019-03-29T00:15:34.312Z,395.00
2019-03-29T00:15:45.753Z,396.00
2019-03-29T00:15:57.779Z,397.00
2019-03-29T00:16:09.932Z,396.00
2019-03-29T00:16:21.649Z,398.00
2019-03-29T00:16:33.373Z,397.00
2019-03-29T00:16:45.230Z,397.00
2019-03-29T00:16:56.931Z,396.00
2019-03-29T00:17:08.713Z,397.00
2019-03-29T00:17:20.416Z,397.00
2019-03-29T00:17:32.210Z,398.00
2019-03-29T00:17:44.142Z,397.00
2019-03-29T00:17:55.874Z,398.00
2019-03-29T00:18:06.941Z,397.00
2019-03-29T00:18:18.823Z,398.00
2019-03-29T00:18:30.572Z,401.00
2019-03-29T00:18:41.640Z,397.00
2019-03-29T00:18:53.356Z,403.00
2019-03-29T00:19:05.073Z,400.00
2019-03-29T00:19:16.153Z,398.00
2019-03-29T00:19:27.915Z,394.00
2019-03-29T00:19:39.812Z,394.00
2019-03-29T00:19:51.511Z,394.00
2019-03-29T00:20:05.997Z,392.00
2019-03-29T00:20:18.092Z,396.00
2019-03-29T00:20:29.792Z,397.00
2019-03-29T00:20:41.690Z,400.00
2019-03-29T00:20:53.449Z,398.00
2019-03-29T00:21:05.174Z,400.00
2019-03-29T00:21:16.892Z,399.00
2019-03-29T00:21:28.573Z,397.00
2019-03-29T00:21:40.274Z,413.00
2019-03-29T00:21:51.973Z,423.00
2019-03-29T00:22:03.233Z,408.00
2019-03-29T00:22:14.272Z,405.00
2019-03-29T00:22:26.194Z,401.00
2019-03-29T00:22:38.149Z,401.00
2019-03-29T00:22:49.309Z,401.00
2019-03-29T00:23:01.132Z,400.00
2019-03-29T00:23:12.892Z,401.00
2019-03-29T00:23:24.677Z,400.00
2019-03-29T00:23:35.692Z,396.00
2019-03-29T00:23:46.756Z,397.00
2019-03-29T00:24:06.567Z,397.00
2019-03-29T00:24:15.246Z,398.00
2019-03-29T00:24:26.851Z,398.00
2019-03-29T00:24:37.969Z,400.00
2019-03-29T00:24:49.732Z,400.00
2019-03-29T00:25:01.399Z,397.00
2019-03-29T00:25:12.732Z,397.00
2019-03-29T00:25:24.434Z,394.00
2019-03-29T00:25:36.132Z,399.00
2019-03-29T00:25:47.912Z,399.00
2019-03-29T00:25:59.097Z,398.00
2019-03-29T00:26:11.075Z,394.00
2019-03-29T00:26:22.189Z,397.00
2019-03-29T00:26:33.913Z,392.00
2019-03-29T00:26:45.951Z,393.00
2019-03-29T00:26:57.813Z,394.00
2019-03-29T00:27:09.530Z,393.00
2019-03-29T00:27:21.313Z,392.00
2019-03-29T00:27:33.110Z,395.00
2019-03-29T00:27:45.169Z,393.00
2019-03-29T00:27:56.911Z,393.00
2019-03-29T00:28:08.731Z,415.00
2019-03-29T00:28:19.879Z,391.00
2019-03-29T00:28:31.574Z,393.00
2019-03-29T00:28:43.537Z,396.00
2019-03-29T00:28:55.306Z,394.00
2019-03-29T00:29:07.250Z,394.00
2019-03-29T00:29:18.993Z,392.00
2019-03-29T00:29:30.674Z,394.00
2019-03-29T00:29:42.374Z,393.00
2019-03-29T00:29:54.258Z,391.00
2019-03-29T00:30:05.970Z,390.00
2019-03-29T00:30:17.953Z,394.00
2019-03-29T00:30:29.833Z,397.00
2019-03-29T00:30:41.571Z,395.00
2019-03-29T00:30:53.390Z,398.00
2019-03-29T00:31:05.115Z,397.00
2019-03-29T00:31:16.130Z,396.00
2019-03-29T00:31:27.218Z,397.00
2019-03-29T00:31:39.416Z,401.00
2019-03-29T00:31:51.772Z,383.00
2019-03-29T00:32:02.853Z,388.00
2019-03-29T00:32:14.773Z,386.00
2019-03-29T00:32:26.691Z,389.00
2019-03-29T00:32:38.713Z,389.00
2019-03-29T00:32:50.569Z,389.00
2019-03-29T00:33:02.329Z,385.00
2019-03-29T00:33:14.196Z,387.00
2019-03-29T00:33:26.249Z,386.00
2019-03-29T00:33:38.089Z,385.00
2019-03-29T00:33:50.081Z,384.00
2019-03-29T00:34:01.910Z,385.00
2019-03-29T00:34:13.652Z,384.00
2019-03-29T00:34:25.412Z,381.00
2019-03-29T00:34:36.759Z,375.00
2019-03-29T00:34:48.814Z,400.00
2019-03-29T00:35:00.675Z,396.00
2019-03-29T00:35:12.212Z,404.00
2019-03-29T00:35:24.094Z,397.00
2019-03-29T00:35:35.776Z,391.00
2019-03-29T00:35:47.571Z,393.00
2019-03-29T00:35:59.866Z,398.00
2019-03-29T00:36:11.653Z,394.00
2019-03-29T00:36:23.353Z,390.00
2019-03-29T00:36:34.369Z,388.00
2019-03-29T00:36:46.051Z,387.00
2019-03-29T00:36:57.771Z,390.00
2019-03-29T00:37:09.573Z,384.00
2019-03-29T00:37:20.593Z,389.00
2019-03-29T00:37:32.297Z,395.00
2019-03-29T00:37:53.407Z,390.00
2019-03-29T00:38:00.710Z,385.00
2019-03-29T00:38:12.468Z,386.00
2019-03-29T00:38:24.193Z,387.00
2019-03-29T00:38:35.239Z,386.00
2019-03-29T00:38:47.011Z,382.00
2019-03-29T00:38:58.772Z,380.00
2019-03-29T00:39:10.213Z,384.00
2019-03-29T00:39:22.152Z,404.00
2019-03-29T00:39:33.857Z,397.00
2019-03-29T00:39:44.894Z,400.00
2019-03-29T00:39:56.691Z,398.00
2019-03-29T00:40:08.394Z,405.00
2019-03-29T00:40:19.455Z,405.00
2019-03-29T00:40:31.154Z,402.00
2019-03-29T00:40:42.877Z,404.00
2019-03-29T00:40:53.974Z,403.00
2019-03-29T00:41:06.110Z,402.00
2019-03-29T00:41:17.852Z,400.00
2019-03-29T00:41:29.554Z,400.00
2019-03-29T00:41:41.131Z,399.00
2019-03-29T00:41:52.352Z,398.00
2019-03-29T00:42:04.273Z,397.00
2019-03-29T00:42:16.971Z,397.00
2019-03-29T00:42:29.056Z,395.00
2019-03-29T00:42:40.130Z,394.00
2019-03-29T00:42:51.992Z,396.00
2019-03-29T00:43:03.695Z,396.00
2019-03-29T00:43:15.575Z,395.00
2019-03-29T00:43:27.274Z,397.00
2019-03-29T00:43:38.297Z,397.00
2019-03-29T00:43:50.071Z,398.00
2019-03-29T00:44:01.813Z,397.00
2019-03-29T00:44:13.532Z,397.00
2019-03-29T00:44:25.316Z,401.00
2019-03-29T00:44:37.010Z,397.00
2019-03-29T00:44:48.033Z,400.00
2019-03-29T00:44:59.071Z,383.00
2019-03-29T00:45:10.876Z,388.00
2019-03-29T00:45:22.621Z,397.00
2019-03-29T00:45:34.411Z,401.00
2019-03-29T00:45:46.490Z,402.00
2019-03-29T00:45:58.395Z,398.00
2019-03-29T00:46:10.384Z,396.00
2019-03-29T00:46:22.453Z,399.00
2019-03-29T00:46:34.171Z,398.00
2019-03-29T00:46:45.871Z,394.00
2019-03-29T00:46:57.654Z,392.00
2019-03-29T00:47:09.350Z,393.00
2019-03-29T00:47:21.291Z,392.00
2019-03-29T00:47:32.393Z,394.00
2019-03-29T00:47:44.150Z,393.00
2019-03-29T00:47:56.111Z,392.00
2019-03-29T00:48:07.974Z,390.00
2019-03-29T00:48:19.011Z,390.00
2019-03-29T00:48:30.710Z,388.00
2019-03-29T00:48:41.714Z,392.00
2019-03-29T00:48:53.452Z,390.00
2019-03-29T00:49:05.173Z,386.00
2019-03-29T00:49:17.091Z,387.00
2019-03-29T00:49:29.071Z,387.00
2019-03-29T00:49:41.002Z,389.00
2019-03-29T00:49:52.771Z,393.00
2019-03-29T00:50:04.456Z,393.00
2019-03-29T00:50:16.170Z,392.00
2019-03-29T00:50:27.854Z,389.00
2019-03-29T00:50:39.673Z,390.00
2019-03-29T00:50:51.437Z,389.00
2019-03-29T00:51:03.196Z,389.00
2019-03-29T00:51:14.912Z,392.00
2019-03-29T00:51:26.631Z,392.00
2019-03-29T00:51:37.651Z,393.00
2019-03-29T00:51:49.411Z,394.00
2019-03-29T00:52:01.097Z,393.00
2019-03-29T00:52:12.889Z,395.00
2019-03-29T00:52:24.631Z,392.00
2019-03-29T00:52:36.436Z,392.00
2019-03-29T00:52:47.611Z,396.00
2019-03-29T00:52:59.340Z,390.00
2019-03-29T00:53:11.270Z,396.00
2019-03-29T00:53:23.053Z,398.00
2019-03-29T00:53:35.800Z,407.00
2019-03-29T00:53:47.595Z,401.00
2019-03-29T00:53:58.673Z,395.00
2019-03-29T00:54:10.130Z,397.00
2019-03-29T00:54:21.830Z,395.00
2019-03-29T00:54:32.909Z,397.00
2019-03-29T00:54:44.611Z,397.00
2019-03-29T00:54:56.311Z,395.00
2019-03-29T00:55:08.011Z,396.00
2019-03-29T00:55:20.211Z,394.00
2019-03-29T00:55:32.634Z,395.00
2019-03-29T00:55:43.635Z,396.00
2019-03-29T00:55:54.794Z,394.00
2019-03-29T00:56:05.871Z,393.00
2019-03-29T00:56:17.652Z,392.00
2019-03-29T00:56:29.353Z,392.00
2019-03-29T00:56:41.133Z,396.00
2019-03-29T00:56:52.153Z,403.00
2019-03-29T00:57:04.869Z,399.00
2019-03-29T00:57:16.730Z,399.00
2019-03-29T00:57:28.431Z,396.00
2019-03-29T00:57:40.231Z,394.00
2019-03-29T00:57:51.256Z,393.00
2019-03-29T00:58:02.630Z,393.00
2019-03-29T00:58:14.473Z,395.00
2019-03-29T00:58:26.210Z,397.00
2019-03-29T00:58:37.935Z,396.00
2019-03-29T00:58:49.633Z,398.00
2019-03-29T00:59:00.632Z,395.00
2019-03-29T00:59:11.671Z,398.00
2019-03-29T00:59:22.711Z,401.00
2019-03-29T00:59:33.769Z,398.00
2019-03-29T00:59:45.474Z,397.00
2019-03-29T00:59:56.551Z,397.00
2019-03-29T01:00:08.251Z,393.00
2019-03-29T01:00:20.090Z,393.00
2019-03-29T01:00:31.953Z,394.00
2019-03-29T01:00:45.409Z,394.00
2019-03-29T01:00:57.197Z,393.00
2019-03-29T01:01:09.050Z,394.00
2019-03-29T01:01:21.048Z,395.00
2019-03-29T01:01:32.834Z,397.00
2019-03-29T01:01:44.593Z,396.00
2019-03-29T01:01:56.354Z,395.00
2019-03-29T01:02:08.072Z,393.00
2019-03-29T01:02:19.790Z,393.00
2019-03-29T01:02:31.532Z,395.00
2019-03-29T01:02:43.232Z,394.00
2019-03-29T01:02:54.951Z,386.00
2019-03-29T01:03:05.956Z,367.00
2019-03-29T01:03:17.792Z,425.00
2019-03-29T01:03:28.877Z,417.00
2019-03-29T01:03:40.594Z,405.00
2019-03-29T01:03:51.613Z,405.00
2019-03-29T01:04:03.314Z,399.00
2019-03-29T01:04:14.355Z,383.00
2019-03-29T01:04:26.094Z,406.00
2019-03-29T01:04:37.849Z,401.00
2019-03-29T01:04:48.879Z,402.00
2019-03-29T01:05:00.573Z,397.00
2019-03-29T01:05:11.656Z,403.00
2019-03-29T01:05:22.693Z,400.00
2019-03-29T01:05:34.472Z,398.00
2019-03-29T01:05:46.877Z,393.00
2019-03-29T01:05:58.733Z,397.00
2019-03-29T01:06:10.790Z,394.00
2019-03-29T01:06:22.711Z,397.00
2019-03-29T01:06:34.574Z,399.00
2019-03-29T01:06:45.691Z,404.00
2019-03-29T01:06:57.594Z,395.00
2019-03-29T01:07:08.611Z,400.00
2019-03-29T01:07:20.293Z,400.00
2019-03-29T01:07:32.015Z,393.00
2019-03-29T01:07:43.774Z,391.00
2019-03-29T01:08:07.219Z,395.00
2019-03-29T01:08:11.790Z,387.00
2019-03-29T01:08:23.493Z,412.00
2019-03-29T01:08:35.294Z,407.00
2019-03-29T01:08:47.033Z,403.00
2019-03-29T01:08:58.036Z,400.00
2019-03-29T01:09:09.034Z,396.00
2019-03-29T01:09:21.039Z,396.00
2019-03-29T01:09:32.091Z,394.00
2019-03-29T01:09:44.173Z,395.00
2019-03-29T01:09:56.262Z,394.00
2019-03-29T01:10:08.377Z,399.00
2019-03-29T01:10:20.114Z,379.00
2019-03-29T01:10:31.994Z,386.00
2019-03-29T01:10:43.013Z,389.00
2019-03-29T01:10:54.056Z,395.00
2019-03-29T01:11:05.194Z,384.00
2019-03-29T01:11:17.056Z,384.00
2019-03-29T01:11:28.254Z,387.00
2019-03-29T01:11:40.939Z,386.00
2019-03-29T01:11:52.934Z,388.00
2019-03-29T01:12:04.671Z,392.00
2019-03-29T01:12:15.710Z,393.00
2019-03-29T01:12:26.717Z,393.00
2019-03-29T01:12:38.554Z,391.00
2019-03-29T01:12:50.252Z,390.00
2019-03-29T01:13:01.251Z,391.00
2019-03-29T01:13:12.977Z,393.00
2019-03-29T01:13:24.928Z,392.00
2019-03-29T01:13:36.691Z,390.00
2019-03-29T01:13:48.391Z,391.00
2019-03-29T01:14:00.152Z,393.00
2019-03-29T01:14:11.929Z,396.00
2019-03-29T01:14:23.749Z,393.00
2019-03-29T01:14:34.754Z,392.00
2019-03-29T01:14:45.813Z,396.00
2019-03-29T01:14:56.872Z,398.00
2019-03-29T01:15:09.120Z,398.00
2019-03-29T01:15:21.152Z,399.00
2019-03-29T01:15:32.868Z,397.00
2019-03-29T01:15:44.672Z,395.00
2019-03-29T01:15:55.698Z,395.00
2019-03-29T01:16:07.711Z,397.00
2019-03-29T01:16:19.490Z,399.00
2019-03-29T01:16:31.274Z,399.00
2019-03-29T01:16:42.974Z,398.00
2019-03-29T01:16:54.198Z,399.00
2019-03-29T01:17:05.896Z,397.00
2019-03-29T01:17:17.572Z,395.00
2019-03-29T01:17:28.634Z,399.00
2019-03-29T01:17:40.352Z,404.00
2019-03-29T01:17:51.413Z,392.00
2019-03-29T01:18:02.672Z,386.00
2019-03-29T01:18:13.936Z,385.00
2019-03-29T01:18:25.009Z,394.00
2019-03-29T01:18:37.943Z,393.00
2019-03-29T01:18:49.934Z,391.00
2019-03-29T01:19:01.712Z,389.00
2019-03-29T01:19:13.455Z,392.00
2019-03-29T01:19:24.492Z,393.00
2019-03-29T01:19:35.534Z,393.00
2019-03-29T01:19:47.255Z,392.00
2019-03-29T01:19:58.970Z,394.00
2019-03-29T01:20:10.670Z,393.00
2019-03-29T01:20:21.920Z,391.00
2019-03-29T01:20:33.813Z,398.00
2019-03-29T01:20:45.571Z,405.00
2019-03-29T01:20:57.315Z,397.00
2019-03-29T01:21:09.012Z,391.00
2019-03-29T01:21:20.852Z,400.00
2019-03-29T01:21:32.725Z,395.00
2019-03-29T01:21:44.573Z,397.00
2019-03-29T01:21:56.534Z,393.00
2019-03-29T01:22:07.550Z,393.00
2019-03-29T01:22:18.632Z,393.00
2019-03-29T01:22:30.350Z,393.00
2019-03-29T01:22:41.352Z,398.00
2019-03-29T01:22:53.150Z,397.00
2019-03-29T01:23:04.891Z,399.00
2019-03-29T01:23:16.616Z,396.00
2019-03-29T01:23:27.672Z,398.00
2019-03-29T01:23:39.373Z,400.00
2019-03-29T01:23:51.074Z,400.00
2019-03-29T01:24:02.777Z,399.00
2019-03-29T01:24:14.472Z,399.00
2019-03-29T01:24:26.252Z,400.00
2019-03-29T01:24:37.951Z,400.00
2019-03-29T01:24:49.934Z,401.00
2019-03-29T01:25:01.713Z,400.00
2019-03-29T01:25:13.610Z,400.00
2019-03-29T01:25:25.334Z,400.00
2019-03-29T01:25:37.096Z,398.00
2019-03-29T01:25:48.990Z,399.00
2019-03-29T01:26:01.022Z,398.00
2019-03-29T01:26:12.793Z,396.00
2019-03-29T01:26:24.516Z,395.00
2019-03-29T01:26:36.261Z,394.00
2019-03-29T01:26:48.271Z,392.00
2019-03-29T01:26:59.334Z,393.00
2019-03-29T01:27:11.193Z,397.00
2019-03-29T01:27:23.414Z,400.00
2019-03-29T01:27:35.272Z,400.00
2019-03-29T01:27:47.412Z,396.00
2019-03-29T01:27:59.232Z,399.00
2019-03-29T01:28:11.887Z,400.00
2019-03-29T01:28:24.050Z,395.00
2019-03-29T01:28:36.018Z,394.00
2019-03-29T01:28:47.991Z,393.00
2019-03-29T01:29:00.110Z,392.00
2019-03-29T01:29:12.152Z,393.00
2019-03-29T01:29:24.171Z,392.00
2019-03-29T01:29:35.873Z,393.00
2019-03-29T01:29:47.812Z,395.00
2019-03-29T01:29:59.089Z,397.00
2019-03-29T01:30:10.272Z,396.00
2019-03-29T01:30:21.374Z,395.00
2019-03-29T01:30:32.584Z,396.00
2019-03-29T01:30:44.353Z,397.00
2019-03-29T01:30:56.210Z,396.00
2019-03-29T01:31:07.951Z,384.00
2019-03-29T01:31:19.853Z,422.00
2019-03-29T01:31:31.693Z,433.00
2019-03-29T01:31:43.489Z,416.00
2019-03-29T01:31:55.370Z,408.00
2019-03-29T01:32:07.347Z,407.00
2019-03-29T01:32:19.154Z,412.00
2019-03-29T01:32:30.951Z,408.00
2019-03-29T01:32:45.076Z,404.00
2019-03-29T01:32:56.792Z,402.00
2019-03-29T01:33:08.690Z,401.00
2019-03-29T01:33:20.015Z,401.00
2019-03-29T01:33:31.051Z,402.00
2019-03-29T01:33:42.754Z,400.00
2019-03-29T01:33:54.436Z,398.00
2019-03-29T01:34:06.320Z,396.00
2019-03-29T01:34:18.155Z,395.00
2019-03-29T01:34:30.064Z,396.00
2019-03-29T01:34:42.965Z,397.00
2019-03-29T01:34:54.949Z,397.00
2019-03-29T01:35:06.634Z,399.00
2019-03-29T01:35:18.365Z,400.00
2019-03-29T01:35:30.111Z,397.00
2019-03-29T01:35:41.893Z,397.00
2019-03-29T01:35:52.935Z,396.00
2019-03-29T01:36:04.633Z,398.00
2019-03-29T01:36:16.334Z,399.00
2019-03-29T01:36:28.296Z,402.00
2019-03-29T01:36:39.976Z,401.00
2019-03-29T01:36:52.002Z,398.00
2019-03-29T01:37:03.752Z,399.00
2019-03-29T01:37:15.452Z,400.00
2019-03-29T01:37:27.211Z,399.00
2019-03-29T01:37:38.912Z,400.00
2019-03-29T01:37:50.611Z,410.00
2019-03-29T01:38:02.390Z,414.00
2019-03-29T01:38:21.642Z,412.00
2019-03-29T01:38:29.657Z,402.00
2019-03-29T01:38:41.200Z,401.00
2019-03-29T01:38:53.013Z,398.00
2019-03-29T01:39:04.693Z,399.00
2019-03-29T01:39:16.985Z,399.00
2019-03-29T01:39:28.876Z,396.00
2019-03-29T01:39:40.612Z,398.00
2019-03-29T01:39:52.375Z,399.00
2019-03-29T01:40:04.315Z,397.00
2019-03-29T01:40:15.933Z,398.00
2019-03-29T01:40:27.044Z,396.00
2019-03-29T01:40:38.893Z,398.00
2019-03-29T01:40:50.852Z,394.00
2019-03-29T01:41:02.653Z,395.00
2019-03-29T01:41:14.512Z,395.00
2019-03-29T01:41:26.908Z,398.00
2019-03-29T01:41:38.953Z,402.00
2019-03-29T01:41:50.870Z,393.00
2019-03-29T01:42:02.633Z,399.00
2019-03-29T01:42:14.354Z,400.00
2019-03-29T01:42:26.073Z,400.00
2019-03-29T01:42:37.094Z,395.00
2019-03-29T01:42:48.529Z,387.00
2019-03-29T01:43:00.391Z,390.00
2019-03-29T01:43:11.431Z,386.00
2019-03-29T01:43:23.252Z,390.00
2019-03-29T01:43:35.283Z,391.00
2019-03-29T01:43:47.673Z,392.00
2019-03-29T01:43:59.372Z,392.00
2019-03-29T01:44:11.152Z,392.00
2019-03-29T01:44:22.969Z,392.00
2019-03-29T01:44:34.737Z,389.00
2019-03-29T01:44:46.431Z,389.00
2019-03-29T01:44:57.512Z,389.00
2019-03-29T01:45:09.193Z,391.00
2019-03-29T01:45:20.733Z,391.00
2019-03-29T01:45:32.815Z,391.00
2019-03-29T01:45:45.314Z,398.00
2019-03-29T01:45:57.811Z,404.00
2019-03-29T01:46:09.530Z,385.00
2019-03-29T01:46:21.290Z,388.00
2019-03-29T01:46:32.851Z,387.00
2019-03-29T01:46:44.151Z,393.00
2019-03-29T01:46:55.577Z,393.00
2019-03-29T01:47:07.373Z,395.00
2019-03-29T01:47:18.498Z,393.00
2019-03-29T01:47:30.032Z,393.00
2019-03-29T01:47:42.211Z,396.00
2019-03-29T01:47:53.232Z,391.00
2019-03-29T01:48:04.972Z,394.00
2019-03-29T01:48:15.996Z,395.00
2019-03-29T01:48:27.692Z,400.00
2019-03-29T01:48:38.714Z,382.00
2019-03-29T01:48:49.730Z,383.00
2019-03-29T01:49:01.058Z,387.00
2019-03-29T01:49:12.751Z,390.00
2019-03-29T01:49:24.434Z,391.00
2019-03-29T01:49:35.417Z,396.00
2019-03-29T01:49:47.112Z,397.00
2019-03-29T01:49:58.952Z,395.00
2019-03-29T01:50:10.673Z,394.00
2019-03-29T01:50:21.695Z,395.00
2019-03-29T01:50:32.773Z,394.00
2019-03-29T01:50:44.693Z,393.00
2019-03-29T01:50:55.714Z,393.00
2019-03-29T01:51:07.393Z,389.00
2019-03-29T01:51:19.214Z,392.00
2019-03-29T01:51:31.014Z,393.00
2019-03-29T01:51:42.811Z,385.00
2019-03-29T01:51:54.494Z,390.00
2019-03-29T01:52:06.212Z,395.00
2019-03-29T01:52:17.954Z,401.00
2019-03-29T01:52:31.590Z,401.00
2019-03-29T01:52:43.393Z,399.00
2019-03-29T01:52:55.104Z,399.00
2019-03-29T01:53:06.834Z,401.00
2019-03-29T01:53:18.531Z,399.00
2019-03-29T01:53:29.570Z,398.00
2019-03-29T01:53:41.317Z,399.00
2019-03-29T01:53:53.194Z,399.00
2019-03-29T01:54:04.441Z,399.00
2019-03-29T01:54:16.251Z,399.00
2019-03-29T01:54:27.932Z,395.00
2019-03-29T01:54:41.732Z,392.00
2019-03-29T01:54:53.510Z,393.00
2019-03-29T01:55:05.211Z,393.00
2019-03-29T01:55:16.393Z,391.00
2019-03-29T01:55:28.154Z,393.00
2019-03-29T01:55:39.172Z,399.00
2019-03-29T01:55:50.191Z,391.00
2019-03-29T01:56:02.052Z,391.00
2019-03-29T01:56:14.269Z,389.00
2019-03-29T01:56:26.632Z,387.00
2019-03-29T01:56:37.670Z,384.00
2019-03-29T01:56:49.513Z,387.00
2019-03-29T01:57:01.238Z,384.00
2019-03-29T01:57:13.092Z,385.00
2019-03-29T01:57:24.953Z,387.00
2019-03-29T01:57:36.110Z,388.00
2019-03-29T01:57:48.013Z,378.00
2019-03-29T01:57:59.989Z,384.00
2019-03-29T01:58:11.694Z,386.00
2019-03-29T01:58:22.753Z,390.00
2019-03-29T01:58:34.573Z,390.00
2019-03-29T01:58:46.515Z,389.00
2019-03-29T01:58:57.751Z,387.00
2019-03-29T01:59:09.672Z,387.00
2019-03-29T01:59:21.570Z,387.00
2019-03-29T01:59:33.472Z,389.00
2019-03-29T01:59:45.234Z,402.00
2019-03-29T01:59:56.270Z,392.00
2019-03-29T02:00:09.039Z,397.00
2019-03-29T02:00:20.294Z,398.00
2019-03-29T02:00:32.060Z,400.00
2019-03-29T02:00:43.757Z,405.00
2019-03-29T02:00:55.576Z,401.00
2019-03-29T02:01:07.355Z,399.00
2019-03-29T02:01:19.071Z,397.00
2019-03-29T02:01:30.871Z,397.00
2019-03-29T02:01:42.615Z,397.00
2019-03-29T02:01:54.366Z,389.00
2019-03-29T02:02:06.875Z,394.00
2019-03-29T02:02:18.645Z,392.00
2019-03-29T02:02:30.451Z,395.00
2019-03-29T02:02:42.512Z,394.00
2019-03-29T02:02:54.194Z,392.00
2019-03-29T02:03:05.932Z,394.00
2019-03-29T02:03:17.011Z,389.00
2019-03-29T02:03:28.713Z,391.00
2019-03-29T02:03:40.479Z,391.00
2019-03-29T02:03:52.192Z,390.00
2019-03-29T02:04:05.801Z,390.00
2019-03-29T02:04:18.135Z,389.00
2019-03-29T02:04:29.752Z,387.00
2019-03-29T02:04:41.451Z,387.00
2019-03-29T02:04:52.671Z,385.00
2019-03-29T02:05:03.796Z,383.00
2019-03-29T02:05:15.014Z,398.00
2019-03-29T02:05:26.059Z,396.00
2019-03-29T02:05:37.795Z,398.00
2019-03-29T02:05:48.800Z,390.00
2019-03-29T02:06:00.511Z,390.00
2019-03-29T02:06:12.170Z,387.00
2019-03-29T02:06:24.014Z,388.00
2019-03-29T02:06:35.612Z,389.00
2019-03-29T02:06:47.790Z,387.00
2019-03-29T02:06:59.514Z,390.00
2019-03-29T02:07:11.374Z,391.00
2019-03-29T02:07:23.671Z,389.00
2019-03-29T02:07:35.990Z,396.00
2019-03-29T02:07:48.152Z,399.00
2019-03-29T02:07:59.853Z,401.00
2019-03-29T02:08:11.536Z,399.00
2019-03-29T02:08:35.156Z,398.00
2019-03-29T02:08:39.413Z,397.00
2019-03-29T02:08:51.073Z,398.00
2019-03-29T02:09:02.054Z,396.00
2019-03-29T02:09:13.334Z,399.00
2019-03-29T02:09:24.750Z,397.00
2019-03-29T02:09:36.536Z,398.00
2019-03-29T02:09:48.514Z,391.00
2019-03-29T02:09:59.597Z,396.00
2019-03-29T02:10:11.312Z,395.00
2019-03-29T02:10:23.103Z,398.00
2019-03-29T02:10:34.817Z,401.00
2019-03-29T02:10:46.610Z,400.00
2019-03-29T02:10:58.475Z,397.00
2019-03-29T02:11:10.250Z,398.00
2019-03-29T02:11:22.250Z,398.00
2019-03-29T02:11:34.337Z,395.00
2019-03-29T02:11:45.332Z,393.00
2019-03-29T02:11:56.453Z,397.00
2019-03-29T02:12:08.132Z,396.00
2019-03-29T02:12:19.814Z,394.00
2019-03-29T02:12:30.853Z,397.00
2019-03-29T02:12:42.691Z,397.00
2019-03-29T02:12:54.395Z,395.00
2019-03-29T02:13:06.292Z,397.00
2019-03-29T02:13:18.016Z,391.00
2019-03-29T02:13:29.716Z,389.00
2019-03-29T02:13:41.551Z,405.00
2019-03-29T02:13:53.235Z,397.00
2019-03-29T02:14:05.090Z,397.00
2019-03-29T02:14:17.856Z,394.00
2019-03-29T02:14:29.676Z,394.00
2019-03-29T02:14:41.436Z,395.00
2019-03-29T02:14:53.131Z,393.00
2019-03-29T02:15:04.891Z,391.00
2019-03-29T02:15:16.611Z,392.00
2019-03-29T02:15:27.632Z,401.00
2019-03-29T02:15:39.334Z,398.00
2019-03-29T02:15:51.092Z,396.00
2019-03-29T02:16:03.168Z,393.00
2019-03-29T02:16:15.651Z,393.00
2019-03-29T02:16:26.712Z,398.00
2019-03-29T02:16:38.418Z,394.00
2019-03-29T02:16:49.457Z,403.00
2019-03-29T02:17:00.693Z,396.00
2019-03-29T02:17:11.893Z,387.00
2019-03-29T02:17:23.637Z,390.00
2019-03-29T02:17:35.372Z,389.00
2019-03-29T02:17:47.247Z,395.00
2019-03-29T02:17:59.639Z,392.00
2019-03-29T02:18:11.252Z,386.00
2019-03-29T02:18:23.131Z,388.00
2019-03-29T02:18:35.034Z,389.00
2019-03-29T02:18:46.069Z,388.00
2019-03-29T02:18:57.812Z,392.00
2019-03-29T02:19:09.614Z,393.00
2019-03-29T02:19:20.656Z,393.00
2019-03-29T02:19:31.960Z,390.00
2019-03-29T02:19:45.561Z,389.00
2019-03-29T02:19:57.985Z,404.00
2019-03-29T02:20:09.854Z,404.00
2019-03-29T02:20:21.613Z,402.00
2019-03-29T02:20:32.657Z,395.00
2019-03-29T02:20:43.695Z,394.00
2019-03-29T02:20:55.592Z,392.00
2019-03-29T02:21:07.274Z,393.00
2019-03-29T02:21:18.331Z,394.00
2019-03-29T02:21:30.032Z,395.00
2019-03-29T02:21:41.093Z,397.00
2019-03-29T02:21:52.095Z,394.00
2019-03-29T02:22:04.036Z,391.00
2019-03-29T02:22:15.714Z,397.00
2019-03-29T02:22:26.833Z,399.00
2019-03-29T02:22:37.873Z,405.00
2019-03-29T02:22:49.851Z,402.00
2019-03-29T02:23:01.413Z,402.00
2019-03-29T02:23:12.557Z,397.00
2019-03-29T02:23:23.534Z,402.00
2019-03-29T02:23:35.492Z,402.00
2019-03-29T02:23:47.178Z,399.00
2019-03-29T02:23:59.210Z,403.00
2019-03-29T02:24:10.393Z,395.00
2019-03-29T02:24:22.112Z,397.00
2019-03-29T02:24:33.800Z,394.00
2019-03-29T02:24:45.513Z,404.00
2019-03-29T02:24:57.363Z,405.00
2019-03-29T02:25:09.173Z,397.00
2019-03-29T02:25:20.896Z,399.00
2019-03-29T02:25:32.570Z,395.00
2019-03-29T02:25:43.593Z,392.00
2019-03-29T02:25:55.460Z,394.00
2019-03-29T02:26:07.166Z,401.00
2019-03-29T02:26:18.873Z,398.00